Terminal Aerodrome Forecast
Issued by NWS

Home | Current Version | Previous Version | Text Only | Print | Product List | Glossary On
Versions: 1 2 3 4 5 6 7 8 9 10 11 12 13 14 15 16 17
000
FTUS43 KJKL 192321
TAFSME
TAF
KSME 192321Z 2000/2024 20008KT 6SM -SHRA VCTS SCT020 BKN035CB
     FM200200 20006KT P6SM SCT015 SCT030
     FM201500 26014G22KT P6SM VCSH BKN035=

USA.gov is the U.S. government's official web portal to all federal, state and local government web resources and services.